createdAt,value
2023-03-11T00:01:04.163Z,100729.16
2023-03-11T00:03:30.644Z,100733.44
2023-03-11T00:06:01.001Z,100734.22
2023-03-11T00:08:28.268Z,100730.31
2023-03-11T00:10:58.678Z,100742.84
2023-03-11T00:13:25.329Z,100741.75
2023-03-11T00:15:56.208Z,100749.50
2023-03-11T00:18:28.068Z,100746.97
2023-03-11T00:20:56.328Z,100750.00
2023-03-11T00:23:24.006Z,100749.41
2023-03-11T00:25:50.876Z,100752.72
2023-03-11T00:28:17.481Z,100744.50
2023-03-11T00:30:46.314Z,100750.28
2023-03-11T00:33:15.251Z,100757.53
2023-03-11T00:35:42.483Z,100767.69
2023-03-11T00:38:12.991Z,100762.94
2023-03-11T00:40:39.761Z,100764.75
2023-03-11T00:43:06.192Z,100775.94
2023-03-11T00:45:32.957Z,100777.09
2023-03-11T00:47:59.876Z,100778.47
2023-03-11T00:50:33.434Z,100785.41
2023-03-11T00:53:00.840Z,100791.84
2023-03-11T00:55:33.086Z,100794.53
2023-03-11T00:58:02.280Z,100788.81
2023-03-11T01:00:30.504Z,100796.59
2023-03-11T01:02:57.763Z,100793.44
2023-03-11T01:05:27.429Z,100798.00
2023-03-11T01:07:53.904Z,100795.53
2023-03-11T01:10:20.710Z,100803.84
2023-03-11T01:12:47.773Z,100804.94
2023-03-11T01:15:20.880Z,100808.34
2023-03-11T01:17:47.374Z,100809.94
2023-03-11T01:20:14.909Z,100811.88
2023-03-11T01:22:41.657Z,100819.31
2023-03-11T01:25:10.353Z,100818.50
2023-03-11T01:27:36.890Z,100813.44
2023-03-11T01:30:04.460Z,100815.78
2023-03-11T01:32:31.222Z,100825.38
2023-03-11T01:34:57.775Z,100823.22
2023-03-11T01:37:24.412Z,100830.25
2023-03-11T01:39:50.886Z,100831.31
2023-03-11T01:42:17.361Z,100832.31
2023-03-11T01:44:43.832Z,100828.84
2023-03-11T01:47:10.281Z,100829.56
2023-03-11T01:49:41.889Z,100831.09
2023-03-11T01:52:09.360Z,100829.19
2023-03-11T01:54:39.324Z,100822.84
2023-03-11T01:57:09.629Z,100831.97
2023-03-11T01:59:48.359Z,100832.47
2023-03-11T02:02:20.076Z,100829.78
2023-03-11T02:04:47.231Z,100839.09
2023-03-11T02:07:15.063Z,100832.25
2023-03-11T02:09:41.903Z,100838.59
2023-03-11T02:12:11.288Z,100833.84
2023-03-11T02:14:42.182Z,100831.50
2023-03-11T02:17:09.006Z,100842.19
2023-03-11T02:19:41.636Z,100838.69
2023-03-11T02:22:10.365Z,100838.06
2023-03-11T02:25:01.752Z,100848.81
2023-03-11T02:27:31.010Z,100852.28
2023-03-11T02:30:00.654Z,100854.09
2023-03-11T02:32:27.876Z,100850.56
2023-03-11T02:34:54.363Z,100852.44
2023-03-11T02:37:20.857Z,100852.13
2023-03-11T02:39:50.622Z,100855.91
2023-03-11T02:42:24.855Z,100856.03
2023-03-11T02:45:10.944Z,100848.59
2023-03-11T02:47:40.351Z,100846.13
2023-03-11T02:50:09.340Z,100839.97
2023-03-11T02:52:36.422Z,100844.19
2023-03-11T02:55:04.124Z,100839.06
2023-03-11T02:57:30.617Z,100852.13
2023-03-11T02:59:57.057Z,100848.75
2023-03-11T03:02:23.535Z,100848.22
2023-03-11T03:04:50.025Z,100861.09
2023-03-11T03:07:16.509Z,100851.25
2023-03-11T03:09:43.014Z,100850.69
2023-03-11T03:12:09.560Z,100859.00
2023-03-11T03:14:36.012Z,100868.38
2023-03-11T03:17:02.676Z,100862.81
2023-03-11T03:19:29.262Z,100862.28
2023-03-11T03:21:55.764Z,100873.78
2023-03-11T03:24:22.230Z,100869.22
2023-03-11T03:26:48.736Z,100879.13
2023-03-11T03:29:15.198Z,100884.59
2023-03-11T03:31:41.723Z,100884.88
2023-03-11T03:34:08.332Z,100896.38
2023-03-11T03:36:34.892Z,100891.03
2023-03-11T03:39:01.613Z,100904.66
2023-03-11T03:41:28.567Z,100906.53
2023-03-11T03:43:55.141Z,100907.63
2023-03-11T03:46:22.203Z,100907.16
2023-03-11T03:48:48.917Z,100910.38
2023-03-11T03:51:16.262Z,100910.38
2023-03-11T03:53:43.312Z,100919.00
2023-03-11T03:56:12.820Z,100921.41
2023-03-11T03:58:40.014Z,100919.81
2023-03-11T04:01:07.940Z,100925.84
2023-03-11T04:03:35.743Z,100915.97
2023-03-11T04:06:17.443Z,100926.25
2023-03-11T04:08:44.297Z,100924.97
2023-03-11T04:11:10.804Z,100930.06
2023-03-11T04:13:37.394Z,100938.13
2023-03-11T04:16:07.840Z,100941.34
2023-03-11T04:18:35.073Z,100938.19
2023-03-11T04:21:05.873Z,100929.69
2023-03-11T04:23:32.506Z,100937.22
2023-03-11T04:25:59.355Z,100938.28
2023-03-11T04:28:26.000Z,100934.25
2023-03-11T04:30:52.576Z,100940.75
2023-03-11T04:33:19.351Z,100933.03
2023-03-11T04:35:45.866Z,100945.03
2023-03-11T04:38:12.439Z,100934.91
2023-03-11T04:40:39.329Z,100939.72
2023-03-11T04:43:05.949Z,100944.53
2023-03-11T04:45:33.154Z,100947.78
2023-03-11T04:47:59.670Z,100951.81
2023-03-11T04:50:26.275Z,100955.00
2023-03-11T04:52:52.732Z,100958.00
2023-03-11T04:55:19.217Z,100959.53
2023-03-11T04:57:45.762Z,100957.47
2023-03-11T05:00:13.267Z,100968.69
2023-03-11T05:02:40.265Z,100966.84
2023-03-11T05:05:07.646Z,100967.16
2023-03-11T05:07:34.414Z,100971.66
2023-03-11T05:10:00.888Z,100975.16
2023-03-11T05:12:27.371Z,100971.16
2023-03-11T05:14:53.868Z,100971.16
2023-03-11T05:17:20.361Z,100968.75
2023-03-11T05:19:46.855Z,100973.59
2023-03-11T05:22:13.372Z,100970.13
2023-03-11T05:24:39.867Z,100972.28
2023-03-11T05:27:06.384Z,100965.38
2023-03-11T05:29:32.919Z,100978.94
2023-03-11T05:31:59.414Z,100989.06
2023-03-11T05:34:25.958Z,100995.47
2023-03-11T05:37:00.960Z,100989.91
2023-03-11T05:39:29.188Z,100989.63
2023-03-11T05:41:58.616Z,100990.69
2023-03-11T05:44:25.123Z,100988.56
2023-03-11T05:46:51.750Z,100990.94
2023-03-11T05:49:18.293Z,101010.16
2023-03-11T05:51:44.778Z,101004.03
2023-03-11T05:54:15.028Z,101008.00
2023-03-11T05:56:43.595Z,101009.06
2023-03-11T05:59:10.840Z,101002.97
2023-03-11T06:01:37.419Z,101015.19
2023-03-11T06:04:04.309Z,101020.53
2023-03-11T06:06:31.533Z,101032.00
2023-03-11T06:08:58.345Z,101027.75
2023-03-11T06:11:25.760Z,101024.25
2023-03-11T06:13:56.951Z,101029.06
2023-03-11T06:16:25.022Z,101035.16
2023-03-11T06:18:52.218Z,101032.22
2023-03-11T06:21:21.688Z,101033.84
2023-03-11T06:23:48.611Z,101031.69
2023-03-11T06:26:18.075Z,101038.63
2023-03-11T06:28:45.374Z,101038.09
2023-03-11T06:31:15.860Z,101041.84
2023-03-11T06:33:43.266Z,101047.97
2023-03-11T06:36:12.249Z,101054.13
2023-03-11T06:38:38.943Z,101062.09
2023-03-11T06:41:06.849Z,101066.63
2023-03-11T06:43:34.918Z,101067.94
2023-03-11T06:46:02.474Z,101066.63
2023-03-11T06:48:28.969Z,101056.22
2023-03-11T06:50:57.042Z,101062.09
2023-03-11T06:53:24.169Z,101070.09
2023-03-11T06:56:00.289Z,101069.03
2023-03-11T06:58:27.179Z,101072.50
2023-03-11T07:00:54.002Z,101074.38
2023-03-11T07:03:20.474Z,101077.81
2023-03-11T07:05:50.570Z,101077.03
2023-03-11T07:08:17.208Z,101090.38
2023-03-11T07:10:43.728Z,101091.72
2023-03-11T07:13:10.240Z,101101.56
2023-03-11T07:15:36.752Z,101105.56
2023-03-11T07:18:03.268Z,101108.75
2023-03-11T07:20:29.812Z,101107.38
2023-03-11T07:22:56.308Z,101106.88
2023-03-11T07:25:22.748Z,101106.88
2023-03-11T07:27:49.672Z,101115.69
2023-03-11T07:30:16.382Z,101107.94
2023-03-11T07:32:42.941Z,101111.91
2023-03-11T07:35:09.726Z,101123.06
2023-03-11T07:37:36.197Z,101123.56
2023-03-11T07:40:02.699Z,101120.03
2023-03-11T07:42:29.237Z,101124.28
2023-03-11T07:44:55.728Z,101120.53
2023-03-11T07:47:22.214Z,101131.44
2023-03-11T07:49:48.738Z,101122.00
2023-03-11T07:52:15.238Z,101130.16
2023-03-11T07:54:41.782Z,101142.81
2023-03-11T07:57:09.209Z,101139.75
2023-03-11T07:59:35.905Z,101136.56
2023-03-11T08:02:03.557Z,101135.84
2023-03-11T08:04:30.490Z,101144.00
2023-03-11T08:06:56.915Z,101142.50
2023-03-11T08:09:23.389Z,101149.66
2023-03-11T08:11:49.964Z,101153.44
2023-03-11T08:14:16.561Z,101160.97
2023-03-11T08:16:43.035Z,101164.53
2023-03-11T08:19:13.640Z,101155.09
2023-03-11T08:21:40.510Z,101151.75
2023-03-11T08:24:07.483Z,101154.06
2023-03-11T08:26:34.024Z,101156.75
2023-03-11T08:29:00.499Z,101153.06
2023-03-11T08:31:30.354Z,101151.59
2023-03-11T08:34:02.751Z,101161.03
2023-03-11T08:36:30.239Z,101152.44
2023-03-11T08:38:57.604Z,101165.06
2023-03-11T08:41:24.331Z,101166.97
2023-03-11T08:43:52.322Z,101175.53
2023-03-11T08:46:34.355Z,101176.38
2023-03-11T08:49:01.958Z,101170.13
2023-03-11T08:51:30.381Z,101173.72
2023-03-11T08:53:56.862Z,101172.38
2023-03-11T08:56:23.457Z,101184.78
2023-03-11T08:58:50.895Z,101175.06
2023-03-11T09:01:17.977Z,101185.72
2023-03-11T09:03:44.439Z,101190.88
2023-03-11T09:06:15.335Z,101191.09
2023-03-11T09:08:43.264Z,101205.00
2023-03-11T09:11:10.546Z,101211.22
2023-03-11T09:13:37.077Z,101207.53
2023-03-11T09:16:05.916Z,101205.72
2023-03-11T09:18:32.437Z,101210.50
2023-03-11T09:21:00.613Z,101209.59
2023-03-11T09:23:27.102Z,101214.56
2023-03-11T09:25:53.781Z,101211.88
2023-03-11T09:28:20.280Z,101214.47
2023-03-11T09:30:46.777Z,101208.19
2023-03-11T09:33:13.208Z,101210.06
2023-03-11T09:35:39.803Z,101218.63
2023-03-11T09:38:06.412Z,101208.97
2023-03-11T09:40:53.210Z,101208.63
2023-03-11T09:43:59.554Z,101202.63
2023-03-11T09:46:49.956Z,101204.41
2023-03-11T09:49:35.119Z,101201.91
2023-03-11T09:52:36.528Z,101208.03
2023-03-11T09:55:06.119Z,101203.38
2023-03-11T09:57:37.097Z,101209.59
2023-03-11T10:00:06.799Z,101205.34
2023-03-11T10:02:36.657Z,101208.03
2023-03-11T10:05:21.810Z,101206.25
2023-03-11T10:07:59.359Z,101212.81
2023-03-11T10:10:30.607Z,101211.41
2023-03-11T10:13:13.250Z,101217.16
2023-03-11T10:15:56.509Z,101218.00
2023-03-11T10:19:10.872Z,101220.78
2023-03-11T10:21:43.946Z,101224.50
2023-03-11T10:25:07.774Z,101223.19
2023-03-11T10:27:46.976Z,101226.41
2023-03-11T10:30:24.632Z,101227.47
2023-03-11T10:32:57.972Z,101216.34
2023-03-11T10:35:34.081Z,101221.41
2023-03-11T10:38:13.833Z,101218.84
2023-03-11T10:40:42.803Z,101224.88
2023-03-11T10:43:17.703Z,101221.06
2023-03-11T10:45:48.368Z,101234.38
2023-03-11T10:48:20.135Z,101224.38
2023-03-11T10:51:02.814Z,101218.53
2023-03-11T10:53:30.273Z,101221.81
2023-03-11T10:55:59.393Z,101215.69
2023-03-11T10:58:29.900Z,101215.75
2023-03-11T11:01:12.482Z,101216.22
2023-03-11T11:03:42.836Z,101216.44
2023-03-11T11:06:22.391Z,101213.03
2023-03-11T11:08:49.004Z,101213.91
2023-03-11T11:11:24.130Z,101219.34
2023-03-11T11:13:58.632Z,101217.06
2023-03-11T11:16:25.649Z,101221.00
2023-03-11T11:19:10.682Z,101220.59
2023-03-11T11:21:40.449Z,101219.09
2023-03-11T11:24:18.629Z,101230.84
2023-03-11T11:27:07.226Z,101209.59
2023-03-11T11:29:34.744Z,101217.03
2023-03-11T11:32:19.408Z,101220.78
2023-03-11T11:35:00.905Z,101218.78
2023-03-11T11:37:32.000Z,101226.47
2023-03-11T11:40:11.161Z,101227.78
2023-03-11T11:42:41.186Z,101224.25
2023-03-11T11:45:29.715Z,101224.97
2023-03-11T11:48:03.869Z,101233.84
2023-03-11T11:50:44.633Z,101229.56
2023-03-11T11:53:43.968Z,101233.94
2023-03-11T11:56:10.424Z,101241.59
2023-03-11T11:58:36.935Z,101238.41
2023-03-11T12:01:19.554Z,101232.75
2023-03-11T12:04:17.668Z,101235.41
2023-03-11T12:07:08.263Z,101234.72
2023-03-11T12:09:50.975Z,101228.97
2023-03-11T12:12:45.021Z,101226.31
2023-03-11T12:15:29.287Z,101225.94
2023-03-11T12:18:02.095Z,101228.63
2023-03-11T12:20:48.220Z,101223.53
2023-03-11T12:23:42.532Z,101226.88
2023-03-11T12:26:26.320Z,101223.78
2023-03-11T12:29:07.833Z,101223.47
2023-03-11T12:31:41.676Z,101215.84
2023-03-11T12:34:14.215Z,101211.22
2023-03-11T12:36:43.980Z,101209.63
2023-03-11T12:39:32.304Z,101217.91
2023-03-11T12:42:11.015Z,101205.81
2023-03-11T12:44:39.170Z,101215.03
2023-03-11T12:47:08.804Z,101204.56
2023-03-11T12:49:36.512Z,101205.66
2023-03-11T12:52:09.203Z,101203.75
2023-03-11T12:54:37.476Z,101211.38
2023-03-11T12:57:12.188Z,101206.91
2023-03-11T12:59:50.849Z,101215.19
2023-03-11T13:02:35.984Z,101208.03
2023-03-11T13:05:12.848Z,101215.03
2023-03-11T13:07:46.286Z,101208.38
2023-03-11T13:10:17.016Z,101210.38
2023-03-11T13:12:49.581Z,101202.69
2023-03-11T13:15:37.317Z,101215.47
2023-03-11T13:18:14.076Z,101206.06
2023-03-11T13:20:43.469Z,101206.91
2023-03-11T13:23:23.107Z,101206.41
2023-03-11T13:25:53.160Z,101198.75
2023-03-11T13:28:49.116Z,101206.53
2023-03-11T13:31:46.513Z,101206.84
2023-03-11T13:34:17.414Z,101202.91
2023-03-11T13:37:05.732Z,101203.81
2023-03-11T13:39:50.840Z,101200.16
2023-03-11T13:42:20.167Z,101204.13
2023-03-11T13:44:47.677Z,101203.16
2023-03-11T13:47:16.647Z,101208.75
2023-03-11T13:49:50.983Z,101212.94
2023-03-11T13:52:27.337Z,101203.81
2023-03-11T13:55:28.233Z,101203.28
2023-03-11T13:57:57.060Z,101206.28
2023-03-11T14:00:28.388Z,101213.06
2023-03-11T14:02:57.724Z,101212.69
2023-03-11T14:05:31.214Z,101215.41
2023-03-11T14:08:21.136Z,101219.97
2023-03-11T14:11:00.886Z,101212.22
2023-03-11T14:13:32.308Z,101214.44
2023-03-11T14:16:14.542Z,101218.13
2023-03-11T14:18:46.508Z,101213.50
2023-03-11T14:21:19.267Z,101209.28
2023-03-11T14:23:50.786Z,101219.41
2023-03-11T14:26:27.655Z,101218.66
2023-03-11T14:29:07.061Z,101217.19
2023-03-11T14:31:35.145Z,101223.97
2023-03-11T14:34:14.786Z,101224.97
2023-03-11T14:36:48.478Z,101219.72
2023-03-11T14:39:27.381Z,101217.75
2023-03-11T14:41:58.292Z,101226.91
2023-03-11T14:44:27.656Z,101227.75
2023-03-11T14:47:04.542Z,101230.28
2023-03-11T14:49:31.350Z,101221.22
2023-03-11T14:52:04.160Z,101231.84
2023-03-11T14:54:33.837Z,101221.81
2023-03-11T14:57:17.506Z,101221.13
2023-03-11T14:59:48.109Z,101232.06
2023-03-11T15:02:26.759Z,101229.72
2023-03-11T15:04:55.249Z,101242.94
2023-03-11T15:07:21.772Z,101230.66
2023-03-11T15:09:48.384Z,101233.00
2023-03-11T15:12:33.301Z,101237.19
2023-03-11T15:15:00.129Z,101232.25
2023-03-11T15:17:37.369Z,101228.41
2023-03-11T15:20:33.718Z,101241.56
2023-03-11T15:23:05.969Z,101229.97
2023-03-11T15:25:35.116Z,101231.22
2023-03-11T15:28:35.149Z,101233.53
2023-03-11T15:31:34.765Z,101222.13
2023-03-11T15:34:21.294Z,101227.72
2023-03-11T15:36:47.733Z,101221.59
2023-03-11T15:39:17.377Z,101221.41
2023-03-11T15:42:04.698Z,101215.53
2023-03-11T15:44:31.103Z,101215.97
2023-03-11T15:46:59.648Z,101219.53
2023-03-11T15:49:26.948Z,101215.00
2023-03-11T15:51:53.410Z,101218.69
2023-03-11T15:54:19.865Z,101220.56
2023-03-11T15:56:46.576Z,101222.47
2023-03-11T15:59:16.363Z,101214.88
2023-03-11T16:01:42.969Z,101210.31
2023-03-11T16:04:13.534Z,101210.69
2023-03-11T16:06:40.025Z,101223.72
2023-03-11T16:09:06.684Z,101215.06
2023-03-11T16:11:33.393Z,101227.16
2023-03-11T16:14:00.216Z,101217.94
2023-03-11T16:16:26.829Z,101213.53
2023-03-11T16:18:53.529Z,101211.56
2023-03-11T16:21:23.406Z,101209.34
2023-03-11T16:23:52.132Z,101215.09
2023-03-11T16:26:19.513Z,101222.56
2023-03-11T16:28:46.021Z,101217.66
2023-03-11T16:31:12.624Z,101221.47
2023-03-11T16:33:39.232Z,101219.22
2023-03-11T16:36:06.170Z,101218.44
2023-03-11T16:38:43.057Z,101212.91
2023-03-11T16:41:09.546Z,101210.16
2023-03-11T16:43:36.001Z,101211.28
2023-03-11T16:46:02.597Z,101209.63
2023-03-11T16:48:29.160Z,101211.78
2023-03-11T16:50:55.865Z,101217.53
2023-03-11T16:53:23.013Z,101211.06
2023-03-11T16:55:49.479Z,101216.28
2023-03-11T16:58:16.082Z,101206.53
2023-03-11T17:00:43.461Z,101216.19
2023-03-11T17:03:15.308Z,101214.47
2023-03-11T17:05:42.352Z,101224.94
2023-03-11T17:08:09.263Z,101226.19
2023-03-11T17:10:44.012Z,101225.00
2023-03-11T17:13:12.694Z,101219.50
2023-03-11T17:15:42.194Z,101219.84
2023-03-11T17:18:08.634Z,101228.00
2023-03-11T17:20:36.464Z,101224.03
2023-03-11T17:23:03.059Z,101215.28
2023-03-11T17:25:29.584Z,101216.22
2023-03-11T17:27:56.112Z,101224.88
2023-03-11T17:30:36.053Z,101231.63
2023-03-11T17:33:03.595Z,101231.34
2023-03-11T17:35:30.142Z,101231.22
2023-03-11T17:37:56.760Z,101226.31
2023-03-11T17:40:23.293Z,101227.59
2023-03-11T17:42:49.767Z,101231.75
2023-03-11T17:45:16.284Z,101233.81
2023-03-11T17:47:43.319Z,101236.31
2023-03-11T17:50:10.841Z,101242.06
2023-03-11T17:52:37.319Z,101240.91
2023-03-11T17:55:04.248Z,101248.06
2023-03-11T17:57:35.403Z,101239.13
2023-03-11T18:00:07.869Z,101240.63
2023-03-11T18:02:34.498Z,101238.03
2023-03-11T18:05:00.954Z,101244.72
2023-03-11T18:07:27.439Z,101239.47
2023-03-11T18:09:53.919Z,101246.72
2023-03-11T18:12:21.704Z,101253.22
2023-03-11T18:14:48.322Z,101250.78
2023-03-11T18:17:16.720Z,101256.03
2023-03-11T18:19:44.500Z,101271.34
2023-03-11T18:22:11.172Z,101262.50
2023-03-11T18:24:37.865Z,101271.44
2023-03-11T18:27:04.543Z,101267.34
2023-03-11T18:29:30.991Z,101267.81
2023-03-11T18:31:57.603Z,101274.09
2023-03-11T18:34:24.074Z,101268.03
2023-03-11T18:36:50.547Z,101267.75
2023-03-11T18:39:17.025Z,101264.06
2023-03-11T18:41:43.677Z,101269.34
2023-03-11T18:44:10.966Z,101280.50
2023-03-11T18:46:37.515Z,101275.84
2023-03-11T18:49:04.494Z,101276.94
2023-03-11T18:51:32.307Z,101278.22
2023-03-11T18:53:59.616Z,101277.72
2023-03-11T18:56:26.163Z,101282.63
2023-03-11T18:58:52.694Z,101279.75
2023-03-11T19:01:21.040Z,101277.91
2023-03-11T19:03:53.351Z,101274.19
2023-03-11T19:06:21.277Z,101274.75
2023-03-11T19:08:48.581Z,101275.81
2023-03-11T19:11:19.804Z,101284.69
2023-03-11T19:13:47.763Z,101272.56
2023-03-11T19:16:17.503Z,101267.38
2023-03-11T19:18:44.503Z,101265.63
2023-03-11T19:21:12.904Z,101270.06
2023-03-11T19:23:39.672Z,101273.22
2023-03-11T19:26:06.575Z,101270.69
2023-03-11T19:28:33.698Z,101264.72
2023-03-11T19:31:00.270Z,101270.38
2023-03-11T19:33:27.138Z,101268.28
2023-03-11T19:35:58.792Z,101268.28
2023-03-11T19:38:26.529Z,101271.97
2023-03-11T19:40:54.547Z,101277.00
2023-03-11T19:43:21.548Z,101275.09
2023-03-11T19:45:49.933Z,101266.91
2023-03-11T19:48:17.197Z,101268.16
2023-03-11T19:50:43.764Z,101267.34
2023-03-11T19:53:10.425Z,101270.53
2023-03-11T19:55:36.935Z,101275.28
2023-03-11T19:58:03.424Z,101269.69
2023-03-11T20:00:30.560Z,101270.50
2023-03-11T20:02:57.171Z,101270.53
2023-03-11T20:05:23.788Z,101270.13
2023-03-11T20:07:50.297Z,101269.41
2023-03-11T20:10:17.699Z,101271.03
2023-03-11T20:12:59.699Z,101267.06
2023-03-11T20:15:28.792Z,101271.34
2023-03-11T20:17:55.410Z,101267.34
2023-03-11T20:20:21.915Z,101272.75
2023-03-11T20:22:48.766Z,101275.16
2023-03-11T20:25:18.139Z,101276.03
2023-03-11T20:27:44.662Z,101271.00
2023-03-11T20:30:11.937Z,101272.66
2023-03-11T20:32:38.896Z,101278.28
2023-03-11T20:35:06.317Z,101275.09
2023-03-11T20:37:33.335Z,101267.97
2023-03-11T20:39:59.841Z,101266.19
2023-03-11T20:42:26.377Z,101262.94
2023-03-11T20:44:54.552Z,101272.78
2023-03-11T20:47:21.436Z,101269.81
2023-03-11T20:49:48.080Z,101272.78
2023-03-11T20:52:14.647Z,101268.25
2023-03-11T20:54:41.497Z,101265.56
2023-03-11T20:57:08.059Z,101275.72
2023-03-11T20:59:34.582Z,101275.34
2023-03-11T21:02:01.220Z,101276.31
2023-03-11T21:04:27.783Z,101274.31
2023-03-11T21:06:55.452Z,101268.59
2023-03-11T21:09:22.045Z,101266.00
2023-03-11T21:11:48.717Z,101277.25
2023-03-11T21:14:17.510Z,101268.97
2023-03-11T21:16:45.433Z,101274.13
2023-03-11T21:19:13.468Z,101270.38
2023-03-11T21:21:40.601Z,101264.22
2023-03-11T21:24:07.680Z,101274.44
2023-03-11T21:26:35.053Z,101262.97
2023-03-11T21:29:01.895Z,101261.66
2023-03-11T21:31:29.689Z,101262.13
2023-03-11T21:33:57.801Z,101262.16
2023-03-11T21:36:24.496Z,101267.28
2023-03-11T21:38:51.161Z,101270.72
2023-03-11T21:41:26.316Z,101261.88
2023-03-11T21:43:54.910Z,101262.16
2023-03-11T21:46:25.765Z,101261.88
2023-03-11T21:48:52.455Z,101250.38
2023-03-11T21:51:21.037Z,101249.28
2023-03-11T21:53:48.662Z,101250.53
2023-03-11T21:56:15.598Z,101252.09
2023-03-11T21:58:42.542Z,101263.72
2023-03-11T22:01:13.463Z,101259.88
2023-03-11T22:03:40.976Z,101249.78
2023-03-11T22:06:10.962Z,101242.66
2023-03-11T22:08:38.184Z,101252.47
2023-03-11T22:11:08.640Z,101256.03
2023-03-11T22:13:35.126Z,101257.59
2023-03-11T22:16:06.417Z,101255.78
2023-03-11T22:18:33.060Z,101246.38
2023-03-11T22:21:00.474Z,101240.88
2023-03-11T22:23:27.960Z,101248.75
2023-03-11T22:25:54.605Z,101243.56
2023-03-11T22:28:21.102Z,101247.72
2023-03-11T22:30:47.565Z,101246.69
2023-03-11T22:33:14.070Z,101245.63
2023-03-11T22:35:40.767Z,101235.75
2023-03-11T22:38:07.300Z,101235.75
2023-03-11T22:40:35.274Z,101238.72
2023-03-11T22:43:01.893Z,101241.72
2023-03-11T22:45:28.376Z,101241.38
2023-03-11T22:47:54.933Z,101228.69
2023-03-11T22:50:21.770Z,101232.16
2023-03-11T22:52:48.302Z,101221.84
2023-03-11T22:55:14.822Z,101224.53
2023-03-11T22:57:41.313Z,101226.16
2023-03-11T23:00:19.328Z,101227.22
2023-03-11T23:02:47.895Z,101228.72
2023-03-11T23:05:15.922Z,101223.31
2023-03-11T23:07:42.695Z,101224.56
2023-03-11T23:10:13.296Z,101226.03
2023-03-11T23:12:40.299Z,101225.59
2023-03-11T23:15:09.748Z,101220.84
2023-03-11T23:17:36.259Z,101221.47
2023-03-11T23:20:05.046Z,101217.84
2023-03-11T23:22:35.356Z,101221.41
2023-03-11T23:25:04.584Z,101216.81
2023-03-11T23:27:31.433Z,101206.94
2023-03-11T23:29:58.242Z,101217.63
2023-03-11T23:32:25.617Z,101211.38
2023-03-11T23:34:52.208Z,101206.81
2023-03-11T23:37:18.777Z,101208.97
2023-03-11T23:39:45.268Z,101214.25
2023-03-11T23:42:24.569Z,101210.22
2023-03-11T23:44:51.926Z,101199.91
2023-03-11T23:47:18.461Z,101197.13
2023-03-11T23:49:44.940Z,101202.91
2023-03-11T23:52:11.418Z,101201.84
2023-03-11T23:54:37.949Z,101194.75
2023-03-11T23:57:04.385Z,101185.53
2023-03-11T23:59:30.866Z,101188.44
